Terminal Aerodrome Forecast
Issued by NWS

Home | Current Version | Previous Version | Text Only | Print | Product List | Glossary On
Versions: 1 2 3 4 5 6 7 8 9 10 11 12 13 14 15 16 17 18 19 20 21
000
FTUS43 KGRB 281505 AAB
TAFMTW
TAF AMD
KMTW 281505Z 2815/0112 15007KT 1/2SM FG VCSH OVC004
      TEMPO 2815/2817 1/4SM -RA FG OVC002
     FM281700 16008KT 1SM RA BR OVC002
     FM282100 13006KT 1 1/2SM -RA BR OVC003
     FM282300 35005KT 1 1/2SM -RA BR OVC003
      TEMPO 2823/0103 1/2SM FG
     FM010600 35015G23KT 1 1/2SM -RA BR OVC005
     FM011100 35016G24KT 2SM -RASN BR OVC006=

USA.gov is the U.S. government's official web portal to all federal, state and local government web resources and services.